Latest Weather Observations for Ivanhoe Airport

IDN60801

Issued at 6:02 pm EST Monday 2 May 2016 (issued every 30 minutes, with the page automatically refreshed every 10 minutes)

About weather observations | Map of weather stations | Latest weather observations for NSW | Other Formats
Station Details ID: 049000 Name: IVANHOE AERODROME AWS Lat: -32.88 Lon: 144.31 Height: 100.0 m
Data from the previous 72 hours. | See also: Recent months at Ivanhoe Airport
Date/Time
EST
Temp
°C
App
Temp
°C
Dew
Point
Rel
Hum
%
Delta-T
°C
Wind Press
QNH
hPa
Press
MSL
hPa
Rain
since 9 am
mm
Dir
 
Spd
km/h
Gust
km/h
Spd
kts
Gust
kts
02/06:00pm 17.6 15.5 6.5 48 5.5 WNW 7 11 4 6 1013.7 1013.7 0.0
02/05:30pm 19.3 16.3 6.1 42 6.6 WNW 11 15 6 8 1013.8 1013.8 0.0
02/05:00pm 20.4 16.9 5.6 38 7.4 WNW 13 17 7 9 1013.7 1013.7 0.0
02/04:30pm 21.0 18.3 5.8 37 7.6 NW 9 13 5 7 1013.7 1013.7 0.0
02/04:00pm 20.8 17.9 6.4 39 7.3 WNW 11 20 6 11 1013.9 1013.9 0.0
02/03:30pm 20.7 17.4 6.3 39 7.3 WNW 13 17 7 9 1013.9 1013.9 0.0
02/03:00pm 20.2 16.1 6.2 40 7.0 WNW 17 24 9 13 1014.3 1014.3 0.0
02/02:30pm 21.3 17.9 6.0 37 7.7 NW 13 22 7 12 1014.0 1014.0 0.0
02/02:00pm 20.8 17.9 6.4 39 7.3 W 11 17 6 9 1014.2 1014.2 0.0
02/01:30pm 20.7 17.7 5.9 38 7.4 W 11 19 6 10 1014.6 1014.6 0.0
02/01:00pm 20.2 16.7 5.4 38 7.3 NW 13 19 7 10 1015.0 1015.0 0.0
02/12:30pm 20.3 17.7 5.9 39 7.2 NW 9 13 5 7 1015.6 1015.6 0.0
02/12:00pm 19.9 17.6 5.9 40 7.0 NW 7 15 4 8 1015.8 1015.8 0.0
02/11:30am 19.5 16.5 7.6 46 6.1 NNE 13 19 7 10 1016.1 1016.1 0.0
02/11:00am 19.0 15.3 8.1 49 5.6 NNE 17 20 9 11 1016.3 1016.3 0.0
02/10:30am 18.2 14.3 8.5 53 5.0 NNE 19 22 10 12 1016.8 1016.7 0.0
02/10:00am 17.4 13.5 8.5 56 4.6 NNE 19 24 10 13 1016.8 1016.7 0.0
02/09:30am 16.1 11.9 8.1 59 4.1 NNE 20 26 11 14 1016.9 1016.8 0.0
02/09:00am 15.5 11.9 8.3 62 3.6 NNE 17 20 9 11 1016.8 1016.7 0.0
02/08:30am 14.5 11.5 7.8 64 3.3 NE 13 17 7 9 1016.9 1016.8 0.0
02/08:00am 12.9 9.4 7.4 69 2.7 NE 15 17 8 9 1016.9 1016.8 0.0
02/07:30am 10.8 7.7 7.3 79 1.7 NE 13 17 7 9 1016.7 1016.6 0.0
02/07:00am 10.0 6.5 7.1 82 1.4 NE 15 15 8 8 1016.7 1016.6 0.0
02/06:30am 10.0 6.8 6.7 80 1.6 NE 13 17 7 9 1016.6 1016.5 0.0
02/06:00am 11.1 7.5 6.6 74 2.1 NE 15 17 8 9 1016.3 1016.3 0.0
02/05:30am 11.0 7.4 6.9 76 2.0 NE 15 17 8 9 1016.3 1016.3 0.0
02/05:00am 10.8 7.2 6.9 77 1.9 NE 15 19 8 10 1016.2 1016.2 0.0
02/04:30am 10.7 7.2 7.4 80 1.6 ENE 15 19 8 10 1016.1 1016.1 0.0
02/04:00am 10.7 7.3 7.8 82 1.4 ENE 15 15 8 8 1016.3 1016.3 0.0
02/03:30am 10.1 7.4 7.5 84 1.2 ENE 11 13 6 7 1016.5 1016.4 0.0
02/03:00am 10.3 8.0 7.4 82 1.4 E 9 11 5 6 1016.7 1016.6 0.0
02/02:30am 10.3 8.0 7.5 83 1.3 ESE 9 11 5 6 1016.9 1016.8 0.0
02/02:00am 10.9 8.6 7.6 80 1.6 SE 9 11 5 6 1017.1 1017.0 0.0
02/01:30am 11.4 8.8 7.9 79 1.7 SSE 11 13 6 7 1017.2 1017.1 0.0
02/01:00am 11.4 9.2 7.7 78 1.8 S 9 9 5 5 1017.4 1017.3 0.0
02/12:30am 11.9 9.7 8.0 77 1.9 SSW 9 11 5 6 1017.7 1017.6 0.0
02/12:00am 12.0 10.2 8.1 77 1.9 S 7 11 4 6 1018.0 1017.9 0.0
 
Date/Time
EST
Temp
°C
App
Temp
°C
Dew
Point
Rel
Hum
%
Delta-T
°C
Wind Press
QNH
hPa
Press
MSL
hPa
Rain
since 9 am
mm
Dir
 
Spd
km/h
Gust
km/h
Spd
kts
Gust
kts
01/11:30pm 12.8 10.7 8.1 73 2.3 S 9 11 5 6 1018.2 1018.1 0.0
01/11:00pm 12.8 10.8 8.5 75 2.1 SW 9 9 5 5 1018.4 1018.3 0.0
01/10:30pm 12.8 11.2 8.7 76 2.1 SW 7 9 4 5 1018.5 1018.4 0.0
01/10:00pm 13.5 11.5 8.8 73 2.4 SW 9 11 5 6 1018.7 1018.6 0.0
01/09:30pm 13.4 11.8 8.9 74 2.3 SW 7 11 4 6 1018.7 1018.6 0.0
01/09:00pm 13.7 12.3 8.7 72 2.5 SW 6 7 3 4 1018.5 1018.4 0.0
01/08:30pm 14.1 12.7 8.9 71 2.6 SW 6 7 3 4 1018.2 1018.1 0.0
01/08:00pm 14.1 12.9 9.5 74 2.4 SW 6 7 3 4 1018.1 1018.0 0.0
01/07:30pm 14.5 13.1 9.5 72 2.6 SW 7 9 4 5 1017.8 1017.7 0.0
01/07:00pm 15.2 13.7 9.1 67 3.1 SSW 7 11 4 6 1017.4 1017.3 0.0
01/06:30pm 15.9 14.4 9.1 64 3.5 SSW 7 9 4 5 1017.1 1017.0 0.0
01/06:00pm 17.0 15.2 7.9 55 4.6 SW 7 9 4 5 1016.9 1016.8 0.0
01/05:30pm 18.6 15.8 6.8 46 5.9 SW 11 17 6 9 1016.7 1016.6 0.0
01/05:00pm 19.6 16.3 6.4 42 6.6 WSW 13 20 7 11 1016.5 1016.4 0.0
01/04:30pm 20.2 17.6 7.6 44 6.5 W 11 19 6 10 1016.2 1016.2 0.0
01/04:00pm 20.1 17.0 7.1 43 6.6 SW 13 19 7 10 1016.1 1016.1 0.0
01/03:30pm 20.1 16.7 7.8 45 6.4 WSW 15 20 8 11 1016.0 1016.0 0.0
01/03:00pm 20.4 17.5 8.1 45 6.4 SW 13 22 7 12 1015.9 1015.9 0.0
01/02:30pm 19.8 16.1 7.9 46 6.2 W 17 24 9 13 1015.9 1015.9 0.0
01/02:00pm 20.0 16.3 8.0 46 6.2 WSW 17 32 9 17 1015.9 1015.9 0.0
01/01:30pm 19.8 16.4 9.1 50 5.7 SW 17 28 9 15 1016.1 1016.1 0.0
01/01:00pm 19.1 14.9 7.5 47 5.9 WSW 19 28 10 15 1016.2 1016.2 0.0
01/12:30pm 19.7 16.0 9.6 52 5.4 WSW 19 28 10 15 1016.5 1016.4 0.0
01/12:00pm 19.0 14.5 8.6 51 5.4 WSW 22 32 12 17 1016.8 1016.7 0.0
01/11:30am 19.0 14.9 8.6 51 5.4 WSW 20 32 11 17 1017.1 1017.0 0.0
01/11:00am 18.9 14.8 8.8 52 5.3 WSW 20 30 11 16 1017.3 1017.2 0.0
01/10:30am 18.3 12.7 8.8 54 5.0 WSW 28 41 15 22 1017.5 1017.4 0.0
01/10:00am 18.2 13.8 9.0 55 4.8 WSW 22 35 12 19 1017.3 1017.2 0.0
01/09:30am 17.8 12.6 8.9 56 4.6 WSW 26 43 14 23 1017.2 1016.9 0.0
01/09:00am 17.9 13.6 9.5 58 4.4 W 22 33 12 18 1016.9 1016.6 17.0
01/08:30am 17.7 14.1 9.8 60 4.2 W 19 30 10 16 1016.6 1016.3 17.0
01/08:00am 17.3 13.3 9.2 59 4.2 WSW 20 32 11 17 1016.0 1015.8 17.0
01/07:30am 17.4 16.3 12.1 71 2.9 WSW 9 15 5 8 1015.4 1015.2 17.0
01/07:00am 17.7 16.0 12.4 71 2.9 WSW 13 17 7 9 1014.6 1014.4 17.0
01/06:30am 17.9 16.1 13.2 74 2.7 WSW 15 22 8 12 1014.1 1013.9 17.0
01/06:00am 18.8 15.2 13.2 70 3.2 SW 24 32 13 17 1013.4 1013.2 17.0
01/05:30am 20.5 18.5 15.5 73 3.0 WNW 20 28 11 15 1012.6 1012.4 17.0
01/05:00am 19.7 19.3 16.2 80 2.1 NW 13 19 7 10 1012.1 1011.9 17.0
01/04:30am 20.3 19.1 16.1 77 2.5 NNW 17 24 9 13 1011.5 1011.3 17.0
01/04:00am 20.9 19.2 16.3 75 2.8 NNW 20 35 11 19 1011.3 1011.1 17.0
01/03:30am 20.4 18.9 16.8 80 2.2 NNW 20 30 11 16 1011.1 1010.8 17.0
01/03:00am 19.0 19.3 18.8 99 0.1 NNW 15 22 8 12 1011.1 1010.8 17.0
01/02:30am 17.6 16.9 17.4 99 0.1 NNE 17 20 9 11 1010.9 1010.6 17.0
01/02:00am 16.9 16.8 16.9 100 0.0 NNE 13 15 7 8 1011.1 1010.8 17.0
01/01:30am 16.7 16.9 16.7 100 0.0 NE 11 13 6 7 1011.2 1010.9 17.0
01/01:00am 16.5 16.2 16.5 100 0.0 NE 13 15 7 8 1011.8 1011.6 16.8
01/12:30am 15.9 16.2 15.9 100 0.0 NNE 9 13 5 7 1012.2 1012.0 16.8
01/12:00am 15.6 11.7 15.4 99 0.1 W 30 56 16 30 1013.3 1013.1 16.8
 
Date/Time
EST
Temp
°C
App
Temp
°C
Dew
Point
Rel
Hum
%
Delta-T
°C
Wind Press
QNH
hPa
Press
MSL
hPa
Rain
since 9 am
mm
Dir
 
Spd
km/h
Gust
km/h
Spd
kts
Gust
kts
30/11:56pm 16.0 9.8 15.8 99 0.1 WNW 43 76 23 41 1013.2 1013.0 16.8
30/11:52pm 16.1 8.2 15.9 99 0.1 W 52 76 28 41 1013.3 1013.1 16.8
30/11:43pm 16.8 12.4 15.2 90 0.9 NNW 32 76 17 41 1014.3 1014.1 4.4
30/11:40pm 19.2 17.9 17.3 89 1.2 NNE 20 65 11 35 1013.7 1013.5 3.6
30/11:30pm 19.7 20.7 18.7 94 0.6 NE 11 15 6 8 1011.3 1011.1 3.6
30/11:00pm 20.2 20.3 20.0 99 0.1 N 19 22 10 12 1011.8 1011.6 3.6
30/10:30pm 19.6 21.3 19.4 99 0.1 NNE 9 15 5 8 1012.2 1012.0 3.6
30/10:14pm 19.8 21.4 19.1 96 0.4 NNE 9 35 5 19 1013.1 1012.9 1.6
30/10:00pm 19.9 22.1 19.1 95 0.5 NNE 6 9 3 5 1012.5 1012.3 0.0
30/09:30pm 19.9 22.6 18.7 93 0.8 NNE 2 7 1 4 1012.9 1012.7 0.0
30/09:00pm 19.9 20.9 18.7 93 0.8 NNE 11 15 6 8 1013.1 1012.9 0.0
30/08:30pm 19.8 22.8 18.5 92 0.8 CALM 0 0 0 0 1013.0 1012.8 0.0
30/08:00pm 20.0 22.3 18.5 91 0.9 NNE 4 7 2 4 1013.2 1013.0 0.0
30/07:30pm 20.3 22.1 18.4 89 1.2 NNE 6 7 3 4 1013.2 1013.0 0.0
30/07:00pm 20.5 23.4 18.3 87 1.4 CALM 0 0 0 0 1013.5 1013.3 0.0
30/06:30pm 20.8 22.4 18.2 85 1.6 N 7 9 4 5 1013.3 1013.1 0.0
30/06:00pm 21.2 22.6 17.8 81 2.1 N 7 9 4 5 1013.5 1013.3 0.0
30/05:30pm 21.8 22.7 17.6 77 2.6 NNE 9 11 5 6 1013.4 1013.2 0.0
30/05:00pm 22.4 23.0 17.8 75 2.9 NNE 11 15 6 8 1013.9 1013.7 0.0
30/04:30pm 22.4 22.4 17.1 72 3.3 NNE 13 17 7 9 1013.9 1013.7 0.0
30/04:00pm 22.8 23.3 17.5 72 3.3 NNE 11 17 6 9 1013.9 1013.7 0.0
30/03:30pm 23.3 23.9 17.7 71 3.5 NNE 11 15 6 8 1014.0 1013.8 0.0
30/03:00pm 22.8 23.4 17.7 73 3.2 N 11 17 6 9 1014.2 1014.0 0.0
30/02:30pm 22.2 22.2 17.3 74 3.0 NNE 13 19 7 10 1014.4 1014.2 0.0
30/02:00pm 21.9 21.9 17.3 75 2.8 NNW 13 19 7 10 1014.9 1014.7 0.0
30/01:30pm 21.0 20.2 17.0 78 2.4 N 17 22 9 12 1015.3 1015.1 0.0
30/01:00pm 21.0 20.3 17.4 80 2.2 NW 17 20 9 11 1015.5 1015.3 0.0
30/12:30pm 20.5 19.7 17.1 81 2.1 N 17 22 9 12 1016.0 1015.8 0.0
30/12:00pm 19.8 19.0 17.0 84 1.7 NNW 17 20 9 11 1016.7 1016.4 0.0
30/11:30am 19.8 19.1 17.4 86 1.5 N 17 20 9 11 1017.0 1016.7 0.0
30/11:00am 19.6 19.4 16.8 84 1.7 NNW 13 19 7 10 1017.2 1016.9 0.0
30/10:30am 19.3 19.0 17.3 88 1.2 N 15 20 8 11 1017.5 1017.2 0.0
30/10:00am 18.7 18.6 17.0 90 1.0 N 13 19 7 10 1017.6 1017.3 0.0
30/09:30am 18.2 17.8 17.2 94 0.6 N 15 17 8 9 1017.7 1017.4 0.0
30/09:00am 18.2 18.8 17.6 96 0.4 N 11 17 6 9 1017.8 1017.5 18.0
30/08:30am 17.7 17.5 17.5 99 0.1 NNW 15 19 8 10 1017.8 1017.5 18.0
30/08:00am 17.5 17.9 17.3 99 0.1 NNW 11 19 6 10 1017.7 1017.4 18.0
30/07:30am 17.2 17.6 17.2 100 0.0 N 11 20 6 11 1017.3 1017.0 18.0
30/07:00am 17.0 16.9 17.0 100 0.0 NNW 13 17 7 9 1016.9 1016.6 18.0
30/06:30am 16.9 17.5 16.9 100 0.0 NNW 9 13 5 7 1016.6 1016.3 18.0
30/06:00am 16.7 17.3 16.7 100 0.0 N 9 11 5 6 1016.2 1016.0 18.0
30/05:30am 16.8 18.0 16.8 100 0.0 N 6 7 3 4 1016.1 1015.9 18.0
30/05:00am 17.0 18.1 17.0 100 0.0 NNW 7 11 4 6 1015.9 1015.7 18.0
30/04:30am 17.2 18.3 17.2 100 0.0 N 7 11 4 6 1015.6 1015.4 18.0
30/04:00am 17.3 18.7 17.3 100 0.0 N 6 9 3 5 1015.5 1015.3 18.0
30/03:30am 17.6 18.5 17.6 100 0.0 N 9 13 5 7 1015.4 1015.2 18.0
30/03:00am 17.8 17.7 17.8 100 0.0 N 15 19 8 10 1015.3 1015.1 18.0
30/02:30am 18.0 18.0 18.0 100 0.0 N 15 20 8 11 1015.3 1015.1 18.0
30/02:00am 18.1 18.1 18.1 100 0.0 NNE 15 20 8 11 1015.2 1015.0 18.0
30/01:30am 18.1 18.9 18.1 100 0.0 N 11 15 6 8 1015.3 1015.1 17.8
30/01:00am 18.0 18.7 18.0 100 0.0 NE 11 15 6 8 1014.5 1014.3 17.8
30/12:30am 18.0 18.3 18.0 100 0.0 E 13 15 7 8 1014.6 1014.4 17.8
30/12:00am 18.2 19.7 18.0 99 0.1 NNE 7 9 4 5 1015.6 1015.4 17.8
 
Date/Time
EST
Temp
°C
App
Temp
°C
Dew
Point
Rel
Hum
%
Delta-T
°C
Wind Press
QNH
hPa
Press
MSL
hPa
Rain
since 9 am
mm
Dir
 
Spd
km/h
Gust
km/h
Spd
kts
Gust
kts
29/11:30pm 18.2 19.3 18.0 99 0.1 NNE 9 11 5 6 1015.8 1015.6 17.8
29/11:00pm 18.2 19.9 18.0 99 0.1 N 6 9 3 5 1016.5 1016.2 17.8
29/10:30pm 18.2 19.3 18.0 99 0.1 NNE 9 13 5 7 1016.6 1016.3 17.8
29/10:00pm 18.2 18.5 18.0 99 0.1 NE 13 15 7 8 1016.5 1016.2 17.8
29/09:30pm 18.1 18.4 17.9 99 0.1 NE 13 15 7 8 1016.5 1016.2 17.8
29/09:00pm 18.2 18.5 18.0 99 0.1 NNE 13 17 7 9 1016.5 1016.2 17.8
29/08:30pm 18.1 18.4 17.9 99 0.1 N 13 17 7 9 1016.6 1016.3 17.8
29/08:00pm 18.1 17.3 17.9 99 0.1 NNE 19 24 10 13 1016.0 1015.8 17.8
29/07:30pm 18.1 17.3 17.9 99 0.1 NE 19 24 10 13 1016.0 1015.8 17.8
29/07:00pm 18.2 17.4 18.0 99 0.1 NE 19 24 10 13 1015.9 1015.7 17.8
29/06:30pm 18.3 18.3 18.1 99 0.1 NE 15 20 8 11 1015.9 1015.7 17.8

Other Formats:

Comma delimited format used in spreadsheet applications
http://www.bom.gov.au/fwo/IDN60801/IDN60801.95697.axf

JavaScript Object Notation format (JSON) in row-major order
http://www.bom.gov.au/fwo/IDN60801/IDN60801.95697.json